Terminal Aerodrome Forecast
Issued by NWS Sioux Falls, SD

Home | Current Version | Previous Version | Text Only | Print | Product List | Glossary Off
Versions: 1 2 3 4 5 6 7 8 9 10 11 12 13 14

000
FTUS43 KFSD 181727
TAFFSD
TAF
KFSD 181727Z 1818/1918 16007KT P6SM FEW015
      TEMPO 1818/1819 BKN015
     FM190500 18011KT P6SM BKN200
     FM191600 23011KT P6SM BKN150=

USA.gov is the U.S. government's official web portal to all federal, state and local government web resources and services.